Time;durP1;ratioP1;P1;durP2;ratioP2;P2;SDS_P1;SDS_P2;PMS_P1;PMS_P2;Temp;Humidity;BMP_temperature;BMP_pressure;BME280_temperature;BME280_humidity;BME280_pressure;Samples;Min_cycle;Max_cycle;Signal;HPM_P1;HPM_P2
2022/01/18 00:01:50;;;;;;;57.60;7.45;;;5.10;99.90;;;;;;5156417;27;20427;-81
2022/01/18 00:04:17;;;;;;;48.28;6.95;;;5.10;99.90;;;;;;5147087;27;20442;-81
2022/01/18 00:06:47;;;;;;;86.32;7.07;;;5.50;99.90;;;;;;5157503;27;20066;-82
2022/01/18 00:09:14;;;;;;;60.50;7.05;;;5.20;99.90;;;;;;5156193;27;20482;-82
2022/01/18 00:11:46;;;;;;;78.72;9.23;;;4.80;99.90;;;;;;5156667;27;20410;-82
2022/01/18 00:14:23;;;;;;;69.97;8.70;;;4.80;99.90;;;;;;5157380;27;20402;-82
2022/01/18 00:17:02;;;;;;;74.45;8.45;;;4.90;99.90;;;;;;5155084;27;20103;-82
2022/01/18 00:19:28;;;;;;;77.53;8.65;;;4.90;99.90;;;;;;5154067;27;20039;-81
2022/01/18 00:22:12;;;;;;;58.33;7.93;;;4.90;99.90;;;;;;5136375;27;20472;-81
2022/01/18 00:24:40;;;;;;;73.27;8.60;;;4.90;99.90;;;;;;5134268;27;20104;-81
2022/01/18 00:27:13;;;;;;;54.10;7.28;;;4.90;99.90;;;;;;5136393;27;20301;-82
2022/01/18 00:29:49;;;;;;;76.13;7.30;;;5.50;99.90;;;;;;5136387;27;20043;-82
2022/01/18 00:34:46;;;;;;;71.75;8.63;;;5.10;99.90;;;;;;5140145;27;20389;-81
2022/01/18 00:37:25;;;;;;;89.65;8.88;;;5.20;99.90;;;;;;5155625;27;20050;-82
2022/01/18 00:39:50;;;;;;;65.70;7.45;;;5.20;99.90;;;;;;5154519;27;20050;-81
2022/01/18 00:42:16;;;;;;;59.00;6.85;;;5.20;99.90;;;;;;5155707;27;20035;-81
2022/01/18 00:44:42;;;;;;;88.22;8.93;;;5.20;99.90;;;;;;5155408;27;20401;-81
2022/01/18 00:47:08;;;;;;;69.78;9.57;;;5.30;99.90;;;;;;5155906;27;20041;-82
2022/01/18 00:49:40;;;;;;;70.05;8.75;;;5.30;99.90;;;;;;5151296;27;20039;-81
2022/01/18 00:52:07;;;;;;;81.70;7.90;;;5.40;99.90;;;;;;5133649;27;20047;-81
2022/01/18 00:54:38;;;;;;;74.35;6.97;;;5.30;99.90;;;;;;5134485;27;20050;-82
2022/01/18 00:57:05;;;;;;;75.28;7.15;;;5.40;99.90;;;;;;5134353;27;20051;-82
2022/01/18 00:59:31;;;;;;;98.95;9.77;;;5.40;99.90;;;;;;5132456;27;20105;-82
2022/01/18 01:01:56;;;;;;;90.53;8.52;;;5.80;99.90;;;;;;5134339;27;20496;-81
2022/01/18 01:04:26;;;;;;;83.32;8.75;;;5.90;99.90;;;;;;5133909;27;20087;-82
2022/01/18 01:06:52;;;;;;;70.25;8.70;;;5.50;99.90;;;;;;5133097;27;20471;-81
2022/01/18 01:09:18;;;;;;;84.90;8.07;;;5.50;99.90;;;;;;5134136;27;20054;-82
2022/01/18 01:11:44;;;;;;;72.35;7.40;;;5.50;99.90;;;;;;5133987;27;20046;-82
2022/01/18 01:14:15;;;;;;;73.88;8.25;;;5.60;99.90;;;;;;5133570;27;20042;-82
2022/01/18 01:16:57;;;;;;;77.47;9.07;;;5.60;99.90;;;;;;5134183;27;20545;-82
2022/01/18 01:45:51;;;;;;;63.10;8.60;;;5.50;99.90;;;;;;5133367;27;20051;-81
2022/01/18 01:48:18;;;;;;;64.22;6.88;;;5.50;99.90;;;;;;5132700;27;20051;-82
2022/01/18 01:50:53;;;;;;;73.68;8.38;;;5.60;99.90;;;;;;5133071;27;20041;-81
2022/01/18 01:53:21;;;;;;;80.38;7.80;;;5.60;99.90;;;;;;5116767;28;20065;-82
2022/01/18 01:55:47;;;;;;;77.05;7.00;;;6.10;99.90;;;;;;5132910;27;20463;-82
2022/01/18 01:58:13;;;;;;;63.35;6.50;;;5.70;99.90;;;;;;5132929;27;20055;-82
2022/01/18 02:00:48;;;;;;;52.70;6.22;;;5.70;99.90;;;;;;5134543;27;20058;-82
2022/01/18 02:03:15;;;;;;;73.68;6.95;;;5.70;99.90;;;;;;5132559;27;20078;-82
2022/01/18 02:05:41;;;;;;;54.17;6.80;;;5.70;99.90;;;;;;5132754;27;20099;-81
2022/01/18 02:08:07;;;;;;;61.97;7.50;;;5.70;99.90;;;;;;5134688;27;20047;-82
2022/01/18 02:10:38;;;;;;;55.67;6.15;;;5.70;99.90;;;;;;5132007;27;20558;-82
2022/01/18 02:13:04;;;;;;;68.72;5.50;;;5.70;99.90;;;;;;5134906;27;20148;-82
2022/01/18 02:15:31;;;;;;;69.80;6.65;;;5.70;99.90;;;;;;5133173;28;20126;-82
2022/01/18 02:23:29;;;;;;;50.13;6.40;;;5.60;99.90;;;;;;5131988;28;20055;-82
2022/01/18 02:25:56;;;;;;;67.22;7.00;;;5.70;99.90;;;;;;5132911;28;20043;-81
2022/01/18 02:28:24;;;;;;;63.33;6.53;;;6.10;99.90;;;;;;5132624;28;20049;-81
2022/01/18 02:30:51;;;;;;;52.53;6.18;;;5.70;99.90;;;;;;5132143;28;20096;-81
2022/01/18 02:33:17;;;;;;;64.45;7.60;;;5.70;99.90;;;;;;5133246;28;20040;-81
2022/01/18 02:35:45;;;;;;;61.90;7.90;;;5.70;99.90;;;;;;5115676;28;20470;-81
2022/01/18 02:38:11;;;;;;;56.42;6.28;;;5.70;99.90;;;;;;5132168;28;20053;-82
2022/01/18 02:40:36;;;;;;;80.68;7.70;;;5.80;99.90;;;;;;5115755;28;20043;-82
2022/01/18 02:45:52;;;;;;;59.17;5.63;;;6.30;99.90;;;;;;5132330;28;20059;-82
2022/01/18 02:48:18;;;;;;;72.53;7.43;;;5.70;99.90;;;;;;5115800;28;20109;-82
2022/01/18 02:50:44;;;;;;;51.53;5.38;;;5.70;99.90;;;;;;5132513;28;20055;-81
2022/01/18 02:53:10;;;;;;;50.17;5.53;;;6.00;99.90;;;;;;5133491;27;20122;-81
2022/01/18 02:55:35;;;;;;;42.92;5.70;;;5.50;99.90;;;;;;5134074;28;20077;-81
2022/01/18 02:58:06;;;;;;;43.85;4.18;;;5.40;99.90;;;;;;5140147;27;20062;-82
2022/01/18 03:03:10;;;;;;;57.28;5.82;;;5.30;99.90;;;;;;5152716;27;20050;-81
2022/01/18 03:03:28;;;;;;;67.63;6.43;;;5.30;99.90;;;;;;5149304;27;20047;-82
2022/01/18 03:05:55;;;;;;;48.58;4.63;;;5.20;99.90;;;;;;5142867;27;20047;-81
2022/01/18 03:08:21;;;;;;;147.20;8.25;;;5.20;99.90;;;;;;5115640;28;20138;-81
2022/01/18 03:10:47;;;;;;;84.57;5.55;;;5.00;99.90;;;;;;5115637;28;20042;-81
2022/01/18 03:13:13;;;;;;;48.63;5.28;;;5.00;99.90;;;;;;5114656;28;20039;-81
2022/01/18 03:15:39;;;;;;;33.85;3.90;;;4.90;99.90;;;;;;5098497;28;20050;-82
2022/01/18 03:18:07;;;;;;;24.10;3.67;;;4.90;99.90;;;;;;5149937;27;20131;-81
2022/01/18 03:20:33;;;;;;;26.13;3.60;;;4.90;99.90;;;;;;5132995;27;20049;-81
2022/01/18 03:22:58;;;;;;;25.48;3.42;;;4.80;99.90;;;;;;5156092;27;20509;-81
2022/01/18 03:28:05;;;;;;;30.23;3.60;;;5.40;99.90;;;;;;5138762;27;20406;-81
2022/01/18 03:30:40;;;;;;;47.67;4.85;;;4.80;99.90;;;;;;5139928;27;20146;-81
2022/01/18 03:33:11;;;;;;;55.22;6.65;;;4.80;99.90;;;;;;5122494;27;20057;-81
2022/01/18 03:35:38;;;;;;;44.42;5.63;;;5.20;99.90;;;;;;5138841;27;20065;-81
2022/01/18 03:38:04;;;;;;;68.00;7.40;;;4.90;99.90;;;;;;5139739;27;20039;-81
2022/01/18 03:40:30;;;;;;;64.63;7.28;;;5.00;99.90;;;;;;5139248;27;20043;-81
2022/01/18 03:42:58;;;;;;;40.67;4.43;;;5.00;99.90;;;;;;5121096;27;20042;-81
2022/01/18 03:45:28;;;;;;;40.92;4.07;;;5.20;99.90;;;;;;5139286;27;20075;-81
2022/01/18 03:47:56;;;;;;;47.72;5.65;;;5.00;99.90;;;;;;5138741;27;20078;-81
2022/01/18 03:50:22;;;;;;;54.90;7.38;;;5.00;99.90;;;;;;5144866;27;20122;-81
2022/01/18 03:52:48;;;;;;;50.05;6.95;;;5.00;99.90;;;;;;5156344;27;20130;-81
2022/01/18 03:55:16;;;;;;;60.25;5.53;;;5.20;99.90;;;;;;5138156;27;20069;-81
2022/01/18 03:57:42;;;;;;;48.85;5.72;;;5.10;99.90;;;;;;5156230;27;20449;-81
2022/01/18 04:00:20;;;;;;;59.20;7.78;;;5.10;99.90;;;;;;5156301;27;20129;-81
2022/01/18 04:02:47;;;;;;;68.95;7.15;;;5.20;99.90;;;;;;5138044;27;20038;-81
2022/01/18 04:05:14;;;;;;;47.88;6.90;;;5.60;99.90;;;;;;5145108;27;20046;-81
2022/01/18 04:07:41;;;;;;;53.15;6.78;;;5.20;99.90;;;;;;5156105;27;20042;-81
2022/01/18 04:10:08;;;;;;;39.47;5.72;;;5.30;99.90;;;;;;5155475;27;20476;-81
2022/01/18 04:12:37;;;;;;;42.58;6.00;;;5.30;99.90;;;;;;5156049;27;20057;-81
2022/01/18 04:15:04;;;;;;;40.75;6.03;;;5.30;99.90;;;;;;5156354;27;20399;-81
2022/01/18 04:17:50;;;;;;;36.47;5.78;;;5.30;99.90;;;;;;5154995;27;20553;-81
2022/01/18 04:26:01;;;;;;;38.17;5.10;;;5.40;99.90;;;;;;5155797;27;20053;-81
2022/01/18 04:28:41;;;;;;;35.83;5.38;;;5.40;99.90;;;;;;5155694;27;20047;-81
2022/01/18 04:31:08;;;;;;;31.17;5.32;;;5.40;99.90;;;;;;5137653;27;20058;-81
2022/01/18 04:33:35;;;;;;;34.88;5.07;;;6.00;99.90;;;;;;5155201;27;20041;-81
2022/01/18 04:36:02;;;;;;;33.38;4.90;;;5.50;99.90;;;;;;5144184;27;20054;-81
2022/01/18 04:38:28;;;;;;;27.88;5.53;;;5.70;99.90;;;;;;5137521;27;20451;-81
2022/01/18 04:40:59;;;;;;;36.30;6.10;;;5.50;99.90;;;;;;5121232;27;20182;-81
2022/01/18 04:43:41;;;;;;;34.58;5.60;;;5.50;99.90;;;;;;5122163;27;20037;-81
2022/01/18 04:48:52;;;;;;;46.75;6.40;;;5.50;99.90;;;;;;5138404;27;20047;-81
2022/01/18 04:51:17;;;;;;;22.25;4.10;;;5.50;99.90;;;;;;5150680;27;20057;-81
2022/01/18 04:53:51;;;;;;;29.73;4.90;;;5.50;99.90;;;;;;5155457;27;20034;-81
2022/01/18 04:56:26;;;;;;;33.45;4.32;;;5.50;99.90;;;;;;5155128;27;20057;-81
2022/01/18 04:58:52;;;;;;;40.75;5.60;;;5.50;99.90;;;;;;5153919;27;20509;-81
2022/01/18 05:01:18;;;;;;;37.33;5.15;;;5.40;99.90;;;;;;5155086;27;20150;-81
2022/01/18 05:03:44;;;;;;;43.45;6.00;;;5.40;99.90;;;;;;5152354;27;20070;-81
2022/01/18 05:06:13;;;;;;;24.52;5.13;;;5.40;99.90;;;;;;5149035;27;20486;-81
2022/01/18 05:08:39;;;;;;;30.13;5.25;;;5.30;99.90;;;;;;5154920;27;20083;-81
2022/01/18 05:11:08;;;;;;;39.92;5.85;;;5.30;99.90;;;;;;5137899;27;20035;-81
2022/01/18 05:21:30;;;;;;;30.27;4.97;;;5.30;99.90;;;;;;5154894;27;20034;-81
2022/01/18 05:23:56;;;;;;;29.33;5.37;;;5.30;99.90;;;;;;5137527;27;20050;-81
2022/01/18 05:26:22;;;;;;;27.30;4.80;;;5.30;99.90;;;;;;5136552;27;20043;-81
2022/01/18 05:28:48;;;;;;;39.22;5.80;;;5.40;99.90;;;;;;5137704;27;20043;-81
2022/01/18 05:31:14;;;;;;;29.45;5.47;;;5.40;99.90;;;;;;5137162;27;20407;-81
2022/01/18 05:33:42;;;;;;;17.83;4.38;;;5.40;99.90;;;;;;5136364;27;20511;-81
2022/01/18 05:36:09;;;;;;;26.08;5.07;;;5.40;99.90;;;;;;5149136;27;20386;-81
2022/01/18 05:38:35;;;;;;;33.10;5.30;;;5.70;99.90;;;;;;5154366;27;20042;-81
2022/01/18 05:41:03;;;;;;;36.15;5.80;;;5.40;99.90;;;;;;5136526;27;20133;-81
2022/01/18 05:43:28;;;;;;;25.02;4.35;;;5.40;99.90;;;;;;5137158;27;20090;-81
2022/01/18 05:45:54;;;;;;;27.85;4.22;;;5.40;99.90;;;;;;5136506;27;20099;-81
2022/01/18 05:48:20;;;;;;;28.90;5.07;;;5.50;99.90;;;;;;5153306;27;20043;-81
2022/01/18 05:50:46;;;;;;;24.27;4.07;;;5.40;99.90;;;;;;5144649;27;20042;-81
2022/01/18 05:53:11;;;;;;;30.08;4.60;;;5.50;99.90;;;;;;5148451;27;20122;-81
2022/01/18 05:55:37;;;;;;;25.05;5.10;;;5.50;99.90;;;;;;5153542;27;20087;-81
2022/01/18 05:58:03;;;;;;;18.83;4.80;;;5.50;99.90;;;;;;5136656;27;20046;-81
2022/01/18 06:00:30;;;;;;;23.63;4.05;;;5.50;99.90;;;;;;5151132;27;20110;-81
2022/01/18 06:08:08;;;;;;;17.98;3.72;;;5.50;99.90;;;;;;5154054;27;20129;-81
2022/01/18 06:10:35;;;;;;;17.02;3.75;;;5.50;99.90;;;;;;5153114;27;20062;-85
2022/01/18 06:13:02;;;;;;;28.17;4.70;;;5.50;99.90;;;;;;5155367;27;20042;-85
2022/01/18 06:15:30;;;;;;;17.52;4.80;;;5.50;99.90;;;;;;5153075;27;20038;-85
2022/01/18 06:17:55;;;;;;;19.02;3.95;;;5.50;99.90;;;;;;5137000;27;20095;-84
2022/01/18 06:20:21;;;;;;;18.70;4.07;;;5.50;99.90;;;;;;5130656;27;20498;-84
2022/01/18 06:22:51;;;;;;;16.13;3.78;;;5.60;99.90;;;;;;5152617;27;20039;-83
2022/01/18 06:25:18;;;;;;;28.83;4.78;;;5.60;99.90;;;;;;5153699;27;20053;-84
2022/01/18 06:27:44;;;;;;;21.63;3.95;;;5.70;99.90;;;;;;5153800;27;20049;-84
2022/01/18 06:30:11;;;;;;;16.90;4.50;;;5.50;99.90;;;;;;5135893;27;20043;-84
2022/01/18 06:32:38;;;;;;;25.27;3.90;;;5.50;99.90;;;;;;5154173;27;20046;-84
2022/01/18 06:35:05;;;;;;;27.10;4.78;;;5.50;99.90;;;;;;5150527;27;20121;-84
2022/01/18 06:37:34;;;;;;;22.90;4.68;;;5.50;99.90;;;;;;5154254;27;20082;-85
2022/01/18 06:40:03;;;;;;;29.33;5.13;;;5.50;99.90;;;;;;5136127;27;20127;-85
2022/01/18 06:42:29;;;;;;;23.45;4.38;;;5.50;99.90;;;;;;5136591;27;20051;-85
2022/01/18 06:44:55;;;;;;;21.77;5.18;;;5.50;99.90;;;;;;5118486;27;20486;-85
2022/01/18 06:47:20;;;;;;;32.10;5.88;;;5.50;99.90;;;;;;5136474;27;20043;-85
2022/01/18 06:49:46;;;;;;;30.60;7.05;;;5.40;99.90;;;;;;5119725;27;20041;-86
2022/01/18 06:52:12;;;;;;;21.73;5.95;;;5.40;99.90;;;;;;5152701;27;20425;-85
2022/01/18 06:54:37;;;;;;;22.48;6.05;;;5.50;99.90;;;;;;5153757;27;20047;-84
2022/01/18 06:57:04;;;;;;;21.80;5.95;;;5.40;99.90;;;;;;5154124;27;20038;-84
2022/01/18 06:59:30;;;;;;;23.13;6.00;;;5.50;99.90;;;;;;5138862;27;20058;-87
2022/01/18 07:01:55;;;;;;;38.17;8.25;;;5.70;99.90;;;;;;5158756;27;20043;-89
2022/01/18 07:04:21;;;;;;;21.83;6.15;;;5.50;99.90;;;;;;5149269;27;20113;-86
2022/01/18 07:06:47;;;;;;;22.65;5.50;;;5.90;99.90;;;;;;5140156;27;20042;-86
2022/01/18 07:09:15;;;;;;;26.02;5.75;;;5.40;99.90;;;;;;5157235;27;20505;-86
2022/01/18 07:11:42;;;;;;;19.52;5.88;;;5.50;99.90;;;;;;5156712;27;20046;-87
2022/01/18 07:14:08;;;;;;;24.75;6.15;;;5.50;99.90;;;;;;5157320;27;20385;-85
2022/01/18 07:16:33;;;;;;;33.17;6.75;;;5.50;99.90;;;;;;5152995;27;20053;-85
2022/01/18 07:19:02;;;;;;;27.50;10.52;;;5.50;99.90;;;;;;5136899;27;20046;-86
2022/01/18 07:21:28;;;;;;;29.40;10.55;;;5.50;99.90;;;;;;5138828;27;20043;-86
2022/01/18 07:24:03;;;;;;;32.20;10.05;;;5.50;99.90;;;;;;5146243;27;20046;-86
2022/01/18 07:26:30;;;;;;;34.92;7.60;;;5.50;99.90;;;;;;5138844;27;20046;-85
2022/01/18 07:28:56;;;;;;;26.52;6.20;;;5.50;99.90;;;;;;5139231;27;20614;-86
2022/01/18 07:31:22;;;;;;;36.33;7.78;;;5.50;99.90;;;;;;5122017;27;20085;-85
2022/01/18 07:33:48;;;;;;;24.92;7.65;;;5.50;99.90;;;;;;5139618;27;20039;-85
2022/01/18 07:36:14;;;;;;;21.73;6.30;;;5.40;99.90;;;;;;5151232;27;20058;-85
2022/01/18 07:38:40;;;;;;;14.55;5.72;;;5.40;99.90;;;;;;5139098;27;20125;-85
2022/01/18 07:41:05;;;;;;;21.35;6.10;;;5.40;99.90;;;;;;5155364;27;20401;-85
2022/01/18 07:43:31;;;;;;;18.88;6.47;;;5.40;99.90;;;;;;5139055;27;20042;-85
2022/01/18 07:45:57;;;;;;;24.02;9.50;;;5.40;99.90;;;;;;5139227;27;20508;-85
2022/01/18 07:48:24;;;;;;;41.15;7.72;;;5.30;99.90;;;;;;5154639;27;20030;-85
2022/01/18 07:50:51;;;;;;;34.90;7.22;;;5.50;99.90;;;;;;5148420;27;20121;-85
2022/01/18 07:53:18;;;;;;;34.28;6.78;;;5.40;99.90;;;;;;5156088;27;20039;-85
2022/01/18 07:55:44;;;;;;;33.55;8.85;;;5.40;99.90;;;;;;5152398;27;20125;-85
2022/01/18 07:58:10;;;;;;;33.05;7.93;;;5.40;99.90;;;;;;5135210;27;20454;-85
2022/01/18 08:00:35;;;;;;;41.08;8.63;;;5.40;99.90;;;;;;5138518;27;20107;-84
2022/01/18 08:03:02;;;;;;;44.50;10.93;;;5.50;99.90;;;;;;5154015;27;20050;-85
2022/01/18 08:05:28;;;;;;;33.63;9.40;;;5.50;99.90;;;;;;5145143;27;20122;-85
2022/01/18 08:07:54;;;;;;;41.22;10.30;;;5.50;99.90;;;;;;5137646;27;20085;-85
2022/01/18 08:10:20;;;;;;;38.03;8.68;;;5.50;99.90;;;;;;5117735;27;20515;-86
2022/01/18 08:12:46;;;;;;;44.25;9.25;;;5.60;99.90;;;;;;5139138;27;20078;-85
2022/01/18 08:15:18;;;;;;;48.28;10.05;;;5.60;99.90;;;;;;5137644;27;20039;-85
2022/01/18 08:17:46;;;;;;;40.05;9.93;;;5.60;99.90;;;;;;5139062;27;20039;-85
2022/01/18 08:20:14;;;;;;;38.03;9.43;;;5.60;99.90;;;;;;5124907;27;20039;-85
2022/01/18 08:22:46;;;;;;;37.70;9.98;;;5.60;99.90;;;;;;5154871;27;20118;-86
2022/01/18 08:25:14;;;;;;;45.67;10.55;;;5.70;99.90;;;;;;5138541;27;20042;-86
2022/01/18 08:27:41;;;;;;;38.42;9.68;;;5.60;99.90;;;;;;5155843;27;20038;-86
2022/01/18 08:30:10;;;;;;;40.42;9.57;;;5.70;99.90;;;;;;5154919;27;20046;-86
2022/01/18 08:32:36;;;;;;;32.65;11.05;;;5.70;99.90;;;;;;5138358;27;20111;-86
2022/01/18 08:35:04;;;;;;;36.33;11.18;;;5.70;99.90;;;;;;5151939;27;20039;-85
2022/01/18 08:37:30;;;;;;;38.55;10.35;;;5.70;99.90;;;;;;5154801;27;20038;-85
2022/01/18 08:39:56;;;;;;;35.55;10.32;;;5.70;99.90;;;;;;5127569;27;20049;-85
2022/01/18 08:42:22;;;;;;;30.83;10.38;;;5.80;99.90;;;;;;5137796;27;20047;-85
2022/01/18 08:44:48;;;;;;;40.17;11.15;;;5.80;99.90;;;;;;5120334;27;20039;-85
2022/01/18 08:47:16;;;;;;;29.63;9.60;;;5.80;99.90;;;;;;5137869;27;20045;-86
2022/01/18 08:49:42;;;;;;;40.55;10.18;;;5.80;99.90;;;;;;5120707;27;20043;-86
2022/01/18 08:52:08;;;;;;;36.75;8.98;;;5.90;99.90;;;;;;5137422;27;20049;-86
2022/01/18 08:54:34;;;;;;;35.10;10.50;;;5.90;99.90;;;;;;5138072;27;20081;-85
2022/01/18 08:57:02;;;;;;;44.40;10.85;;;5.90;99.90;;;;;;5155113;27;20095;-86
2022/01/18 08:59:29;;;;;;;30.42;9.23;;;6.00;99.90;;;;;;5125046;27;20401;-86
2022/01/18 09:01:57;;;;;;;35.08;9.20;;;6.00;99.90;;;;;;5137887;27;20046;-86
2022/01/18 09:04:23;;;;;;;20.08;7.35;;;6.10;99.90;;;;;;5119225;27;20485;-86
2022/01/18 09:06:51;;;;;;;32.60;9.52;;;6.10;99.90;;;;;;5137788;27;20078;-86
2022/01/18 09:09:18;;;;;;;22.20;6.65;;;6.10;99.90;;;;;;5137791;27;20099;-86
2022/01/18 09:11:45;;;;;;;31.63;7.63;;;6.10;99.90;;;;;;5119488;27;20074;-86
2022/01/18 09:14:12;;;;;;;25.25;8.35;;;6.10;99.90;;;;;;5137765;27;20046;-87
2022/01/18 09:16:38;;;;;;;31.23;8.02;;;6.10;99.90;;;;;;5137555;27;20133;-87
2022/01/18 09:19:05;;;;;;;30.35;7.78;;;6.20;99.90;;;;;;5118955;27;20050;-86
2022/01/18 09:21:32;;;;;;;32.83;8.60;;;6.20;99.90;;;;;;5141959;27;20371;-85
2022/01/18 09:23:59;;;;;;;26.95;8.05;;;6.20;99.90;;;;;;5137429;27;20042;-85
2022/01/18 09:26:25;;;;;;;25.70;6.80;;;6.20;99.90;;;;;;5136460;27;20081;-85
2022/01/18 09:28:53;;;;;;;28.08;7.28;;;6.30;99.90;;;;;;5137046;27;20038;-87
2022/01/18 09:31:20;;;;;;;30.00;6.32;;;6.30;99.90;;;;;;5119921;27;20094;-87
2022/01/18 09:33:47;;;;;;;23.08;7.07;;;6.40;99.90;;;;;;5119492;27;20034;-86
2022/01/18 09:36:13;;;;;;;21.90;5.07;;;6.40;99.90;;;;;;5142306;27;20038;-86
2022/01/18 09:38:39;;;;;;;20.23;4.90;;;6.40;99.90;;;;;;5137023;27;20524;-87
2022/01/18 09:41:10;;;;;;;19.42;4.60;;;6.50;99.90;;;;;;5153526;27;20095;-86
2022/01/18 09:43:39;;;;;;;18.15;4.25;;;6.50;99.90;;;;;;5137284;27;20129;-86
2022/01/18 09:46:05;;;;;;;16.42;4.05;;;6.50;99.90;;;;;;5136967;27;20478;-86
2022/01/18 09:48:32;;;;;;;21.65;3.80;;;6.50;99.90;;;;;;5153165;27;20038;-86
2022/01/18 09:50:59;;;;;;;12.80;3.80;;;6.60;99.90;;;;;;5148841;27;20070;-86
2022/01/18 09:53:25;;;;;;;18.20;4.43;;;6.60;99.90;;;;;;5136321;27;20121;-86
2022/01/18 09:55:53;;;;;;;12.43;3.33;;;6.60;99.90;;;;;;5136984;27;20058;-86
2022/01/18 09:58:20;;;;;;;15.63;3.75;;;6.60;99.90;;;;;;5136759;27;20054;-86
2022/01/18 10:00:48;;;;;;;14.45;3.33;;;6.60;99.90;;;;;;5118610;27;20062;-87
2022/01/18 10:03:28;;;;;;;12.70;2.90;;;6.70;99.90;;;;;;5119491;27;20071;-86
2022/01/18 10:05:55;;;;;;;17.45;3.75;;;6.70;99.90;;;;;;5119799;27;20034;-86
2022/01/18 10:08:22;;;;;;;12.38;3.42;;;6.70;99.90;;;;;;5135963;27;20095;-86
2022/01/18 10:10:50;;;;;;;12.98;3.17;;;6.80;99.90;;;;;;5136704;27;20491;-86
2022/01/18 10:13:22;;;;;;;12.57;4.80;;;6.80;99.90;;;;;;5136409;27;20130;-86
2022/01/18 10:16:21;;;;;;;14.50;5.22;;;6.80;99.90;;;;;;5118604;27;20050;-86
2022/01/18 10:18:49;;;;;;;13.82;3.35;;;6.80;99.90;;;;;;5136437;27;20043;-86
2022/01/18 10:21:33;;;;;;;16.90;3.65;;;6.80;99.90;;;;;;5122989;27;20386;-86
2022/01/18 10:24:20;;;;;;;8.75;3.20;;;6.80;99.90;;;;;;5136633;27;20101;-87
2022/01/18 10:26:48;;;;;;;19.13;5.85;;;6.80;99.90;;;;;;5119578;27;20039;-87
2022/01/18 10:29:16;;;;;;;15.30;4.68;;;6.80;99.90;;;;;;5134932;27;20051;-87
2022/01/18 10:34:26;;;;;;;15.25;4.13;;;6.80;99.90;;;;;;5140938;27;20043;-87
2022/01/18 10:37:01;;;;;;;15.38;4.40;;;6.80;99.90;;;;;;5122647;27;20091;-87
2022/01/18 10:39:55;;;;;;;13.45;4.40;;;6.80;99.90;;;;;;5123306;27;20129;-86
2022/01/18 10:42:47;;;;;;;15.98;4.68;;;6.80;99.90;;;;;;5119750;27;20049;-87
2022/01/18 10:45:33;;;;;;;14.40;4.75;;;6.80;99.90;;;;;;5143279;27;20409;-87
2022/01/18 10:48:14;;;;;;;9.70;4.00;;;6.90;99.90;;;;;;5159252;27;20038;-86
2022/01/18 10:50:44;;;;;;;11.50;4.72;;;6.90;99.90;;;;;;5122333;27;20049;-87
2022/01/18 10:53:18;;;;;;;14.70;4.80;;;6.90;99.90;;;;;;5157896;27;20370;-87
2022/01/18 10:55:46;;;;;;;11.63;4.22;;;6.90;99.90;;;;;;5133918;27;20385;-87
2022/01/18 10:58:19;;;;;;;16.67;4.82;;;6.90;99.90;;;;;;5157614;27;20548;-86
2022/01/18 11:00:45;;;;;;;14.43;4.75;;;6.90;99.90;;;;;;5140283;27;20110;-86
2022/01/18 11:03:11;;;;;;;10.93;4.53;;;6.90;99.90;;;;;;5140400;27;20031;-87
2022/01/18 11:05:39;;;;;;;17.33;4.50;;;6.90;99.90;;;;;;5122335;27;20447;-84
2022/01/18 11:08:06;;;;;;;14.43;5.18;;;7.00;99.90;;;;;;5122992;27;20370;-83
2022/01/18 11:10:38;;;;;;;15.75;5.13;;;7.00;99.90;;;;;;5139815;27;20046;-85
2022/01/18 11:13:17;;;;;;;17.02;5.32;;;7.00;99.90;;;;;;5139367;27;20117;-85
2022/01/18 11:15:50;;;;;;;13.73;4.97;;;6.90;99.90;;;;;;5122556;27;20513;-83
2022/01/18 11:18:28;;;;;;;15.85;5.65;;;6.90;99.90;;;;;;5157519;27;20039;-85
2022/01/18 11:20:54;;;;;;;23.27;6.28;;;6.90;99.90;;;;;;5157994;27;20046;-85
2022/01/18 11:23:23;;;;;;;19.45;5.93;;;6.90;99.90;;;;;;5152374;27;20046;-85
2022/01/18 11:25:49;;;;;;;18.67;6.82;;;6.90;99.90;;;;;;5157397;27;20108;-84
2022/01/18 11:28:16;;;;;;;18.30;6.28;;;6.90;99.90;;;;;;5139879;27;20045;-84
2022/01/18 11:30:44;;;;;;;17.42;6.32;;;6.90;99.90;;;;;;5117087;27;20043;-82
2022/01/18 11:33:12;;;;;;;20.17;6.28;;;6.90;99.90;;;;;;5156991;27;20043;-83
2022/01/18 11:36:00;;;;;;;23.02;6.00;;;6.90;99.90;;;;;;5139148;27;20081;-83
2022/01/18 11:38:37;;;;;;;15.43;6.43;;;6.90;99.90;;;;;;5139364;27;20034;-83
2022/01/18 11:41:04;;;;;;;19.35;6.82;;;6.90;99.90;;;;;;5156984;27;20053;-82
2022/01/18 11:43:43;;;;;;;15.30;5.68;;;6.90;99.90;;;;;;5138628;27;20073;-83
2022/01/18 11:46:48;;;;;;;13.00;4.55;;;7.00;99.90;;;;;;5144790;27;20039;-84
2022/01/18 11:49:23;;;;;;;18.87;6.80;;;7.00;99.90;;;;;;5076789;28;20048;-84
2022/01/18 11:52:03;;;;;;;21.10;5.55;;;6.90;99.90;;;;;;5146728;27;20057;-84
2022/01/18 11:57:24;;;;;;;20.75;7.65;;;7.00;99.90;;;;;;5156525;27;20077;-84
2022/01/18 11:59:54;;;;;;;21.58;6.28;;;7.00;99.90;;;;;;5138528;27;20047;-84
2022/01/18 12:02:30;;;;;;;17.75;6.32;;;7.00;99.90;;;;;;5156199;27;20047;-84
2022/01/18 12:04:58;;;;;;;15.68;5.47;;;7.10;99.90;;;;;;5138708;27;20051;-84
2022/01/18 12:07:39;;;;;;;16.23;5.90;;;7.10;99.90;;;;;;5121247;27;20046;-84
2022/01/18 12:10:27;;;;;;;19.30;6.60;;;7.10;99.90;;;;;;5121806;27;20046;-84
2022/01/18 12:12:54;;;;;;;22.00;6.93;;;7.10;99.90;;;;;;5122427;27;20066;-85
2022/01/18 12:15:23;;;;;;;21.75;6.80;;;7.10;99.90;;;;;;5154712;27;20474;-85
2022/01/18 12:18:12;;;;;;;19.00;7.80;;;7.10;99.90;;;;;;5155880;27;20082;-84
2022/01/18 12:20:39;;;;;;;20.70;7.40;;;7.10;99.90;;;;;;5155801;27;20039;-85
2022/01/18 12:23:39;;;;;;;17.77;6.85;;;7.10;99.90;;;;;;5137580;27;20042;-85
2022/01/18 12:26:34;;;;;;;16.70;7.50;;;7.10;99.90;;;;;;5155630;27;20529;-85
2022/01/18 12:29:24;;;;;;;21.15;6.75;;;7.10;99.90;;;;;;5147940;27;20079;-86
2022/01/18 12:34:44;;;;;;;19.42;7.28;;;7.10;99.90;;;;;;5155503;27;20046;-86
2022/01/18 12:37:21;;;;;;;16.80;6.68;;;7.10;99.90;;;;;;5137348;27;20038;-86
2022/01/18 12:39:50;;;;;;;17.23;7.60;;;7.00;99.90;;;;;;5141641;27;20046;-85
2022/01/18 12:45:01;;;;;;;20.17;7.07;;;7.10;99.90;;;;;;5153028;27;20462;-85
2022/01/18 12:47:28;;;;;;;22.35;7.60;;;7.10;99.90;;;;;;5138248;27;20118;-85
2022/01/18 12:49:54;;;;;;;17.45;8.20;;;7.20;99.90;;;;;;5119970;27;20081;-85
2022/01/18 12:52:20;;;;;;;19.50;7.07;;;7.20;99.90;;;;;;5120726;27;20046;-85
2022/01/18 12:54:49;;;;;;;20.50;8.07;;;7.20;99.90;;;;;;5138325;27;20043;-85
2022/01/18 12:57:21;;;;;;;18.73;7.15;;;7.20;99.90;;;;;;5120308;27;20042;-85
2022/01/18 13:00:00;;;;;;;21.75;7.22;;;7.20;99.90;;;;;;5137114;27;20054;-85
2022/01/18 13:02:28;;;;;;;14.93;6.68;;;7.20;99.90;;;;;;5115388;27;20046;-85
2022/01/18 13:05:01;;;;;;;16.90;5.97;;;7.20;99.90;;;;;;5136726;27;20050;-85
2022/01/18 13:07:27;;;;;;;17.10;6.82;;;7.20;99.90;;;;;;5137594;27;20155;-86
2022/01/18 13:10:03;;;;;;;13.68;5.82;;;7.20;99.90;;;;;;5116081;27;20039;-84
2022/01/18 13:12:32;;;;;;;17.63;5.15;;;7.20;99.90;;;;;;5109678;27;20135;-85
2022/01/18 13:15:00;;;;;;;16.38;5.47;;;7.10;99.90;;;;;;5155125;27;20051;-86
2022/01/18 13:24:27;;;;;;;15.25;5.45;;;7.00;99.90;;;;;;5135042;27;20124;-85
2022/01/18 13:26:10;;;;;;;14.52;5.72;;;7.00;99.90;;;;;;5136004;27;20051;-85
2022/01/18 13:28:37;;;;;;;17.05;5.88;;;7.00;99.90;;;;;;5154500;27;20046;-84
2022/01/18 13:31:20;;;;;;;23.52;6.15;;;7.00;99.90;;;;;;5128224;27;20394;-85
2022/01/18 13:33:56;;;;;;;11.20;6.03;;;7.00;99.90;;;;;;5154561;27;20123;-85
2022/01/18 13:36:23;;;;;;;18.42;6.50;;;7.00;99.90;;;;;;5153973;27;20505;-85
2022/01/18 13:38:54;;;;;;;17.80;6.45;;;7.00;99.90;;;;;;5119098;27;20054;-85
2022/01/18 13:41:20;;;;;;;20.23;6.10;;;7.00;99.90;;;;;;5137194;27;20046;-84
2022/01/18 13:43:47;;;;;;;18.55;6.80;;;7.00;99.90;;;;;;5120137;27;20080;-85
2022/01/18 13:46:24;;;;;;;17.15;6.85;;;7.00;99.90;;;;;;5154108;27;20042;-85
2022/01/18 13:49:04;;;;;;;16.45;6.20;;;6.90;99.90;;;;;;5120156;27;20453;-85
2022/01/18 13:51:29;;;;;;;23.17;7.35;;;6.90;99.90;;;;;;5119648;27;20043;-85
2022/01/18 13:54:03;;;;;;;18.35;6.43;;;6.90;99.90;;;;;;5135830;27;20042;-85
2022/01/18 13:56:29;;;;;;;16.05;6.43;;;6.80;99.90;;;;;;5155387;27;20035;-85
2022/01/18 13:59:05;;;;;;;19.88;6.93;;;6.80;99.90;;;;;;5136442;27;20047;-85
2022/01/18 14:01:38;;;;;;;19.17;6.97;;;6.80;99.90;;;;;;5154176;27;20049;-86
2022/01/18 14:04:16;;;;;;;22.05;6.97;;;6.80;99.90;;;;;;5155006;27;20122;-85
2022/01/18 14:06:43;;;;;;;15.70;7.35;;;6.80;99.90;;;;;;5135511;27;20046;-84
2022/01/18 14:09:11;;;;;;;23.30;7.70;;;6.80;99.90;;;;;;5124346;27;20035;-85
2022/01/18 14:11:38;;;;;;;23.83;10.50;;;6.80;99.90;;;;;;5153782;27;20539;-86
2022/01/18 14:14:24;;;;;;;26.50;9.98;;;6.80;99.90;;;;;;5146365;27;20043;-85
2022/01/18 14:16:54;;;;;;;30.90;11.63;;;6.80;99.90;;;;;;5133542;27;20039;-86